Hh East — V4EF3 — position and weather

sailwx.info

Track history (hours):
 
Tides and Currents Weather Stations Pressure Air Temp Water Temp Dewpoint Dewpoint Depression Visibility Wind Speed Wind Dir Waves Ship Positions

Hh East

Last reported at 2017-Nov-16 18:07 UTC. Time now 2017-Nov-21 19:08 UTC.
Position N 43°12' E 007°01'.

Length 127 m; draft 7.4 m.

Type: Ship. MMSI: 341771000.

Date/timePositionNaut miles runAvg speedWind from/ knotsBaromVisibWave heightAir tempDewpointWater temp
2017-Nov-16 18:07N 43°12' E 007°01'110.8
2017-Nov-16 18:01N 43°12' E 007°02'510.7
2017-Nov-16 17:30N 43°16' E 007°08'510.9
2017-Nov-16 17:00N 43°19' E 007°14'611.5
2017-Nov-16 16:30N 43°22' E 007°20'611.2
2017-Nov-16 16:01N 43°26' E 007°26'611.2
2017-Nov-16 15:30N 43°29' E 007°33'711.5
2017-Nov-16 14:55N 43°33' E 007°40'511.5
2017-Nov-16 14:28N 43°36' E 007°46'511.5
2017-Nov-16 14:00N 43°39' E 007°52'1611.5
2017-Nov-16 12:38N 43°47' E 008°10'211.3
2017-Nov-16 12:29N 43°49' E 008°12'611.7
2017-Nov-16 11:59N 43°53' E 008°17'612.2
2017-Nov-16 11:30N 43°57' E 008°23'611.8
2017-Nov-16 11:00N 44°02' E 008°29'611.5
2017-Nov-16 10:30N 44°06' E 008°34'611.3
2017-Nov-16 10:00N 44°09' E 008°40'611.6
2017-Nov-16 09:30N 44°13' E 008°46'611.7
2017-Nov-16 09:01N 44°17' E 008°53'510.4
2017-Nov-16 08:30N 44°20' E 008°58'4 8.2
2017-Nov-16 08:00N 44°24' E 008°55'1 2.4
2017-Nov-16 07:28N 44°24' E 008°53'0 0.0
2017-Nov-16 06:58N 44°24' E 008°53'0 0.0
2017-Nov-16 06:28N 44°24' E 008°53'0 0.0
2017-Nov-16 05:58N 44°24' E 008°53'0 0.0
2017-Nov-16 05:28N 44°24' E 008°53'0 0.0
2017-Nov-16 04:55N 44°24' E 008°53'0 0.0
2017-Nov-16 04:25N 44°24' E 008°53'0 0.0
2017-Nov-16 03:55N 44°24' E 008°53'0 0.0
2017-Nov-16 03:22N 44°24' E 008°53'0 0.0
2017-Nov-16 02:55N 44°24' E 008°53'0 0.0
2017-Nov-16 02:25N 44°24' E 008°53'0 0.0
2017-Nov-16 01:58N 44°24' E 008°53'0 0.0
2017-Nov-16 01:28N 44°24' E 008°53'0 0.0
2017-Nov-16 00:55N 44°24' E 008°53'0 0.0
2017-Nov-16 00:25N 44°24' E 008°53'0 0.0
2017-Nov-15 23:58N 44°24' E 008°53'0 0.0
2017-Nov-15 23:28N 44°24' E 008°53'0 0.0
2017-Nov-15 22:55N 44°24' E 008°53'0 0.0
2017-Nov-15 22:28N 44°24' E 008°53'0 0.0
2017-Nov-15 21:58N 44°24' E 008°53'0 0.0
2017-Nov-15 21:28N 44°24' E 008°53'0 0.0
2017-Nov-15 20:58N 44°24' E 008°53'0 0.0
2017-Nov-15 20:28N 44°24' E 008°53'0 0.0
2017-Nov-15 19:58N 44°24' E 008°53'0 0.0
2017-Nov-15 19:28N 44°24' E 008°53'0 0.0
2017-Nov-15 18:58N 44°24' E 008°53'0 0.0
2017-Nov-15 18:28N 44°24' E 008°53'0 0.0
2017-Nov-15 17:58N 44°24' E 008°53'0 0.0
2017-Nov-15 17:28N 44°24' E 008°53'0 0.0
2017-Nov-15 16:58N 44°24' E 008°53'0 0.0
2017-Nov-15 16:28N 44°24' E 008°53'0 0.0
2017-Nov-15 15:58N 44°24' E 008°53'0 0.0
2017-Nov-15 15:28N 44°24' E 008°53'0 0.0
2017-Nov-15 14:55N 44°24' E 008°53'0 0.0
2017-Nov-15 14:28N 44°24' E 008°53'0 0.0
2017-Nov-15 13:55N 44°24' E 008°53'0 0.0
2017-Nov-15 13:28N 44°24' E 008°53'0 0.0
2017-Nov-15 13:00N 44°24' E 008°53'1 2.2
2017-Nov-15 12:30N 44°24' E 008°54'4 7.5
2017-Nov-15 12:00N 44°21' E 008°58'4 8.5
2017-Nov-15 11:30N 44°18' E 009°02'510.5
2017-Nov-15 11:00N 44°15' E 009°07'611.2
2017-Nov-15 10:30N 44°11' E 009°13'611.1
2017-Nov-15 10:00N 44°08' E 009°20'511.0
2017-Nov-15 09:30N 44°06' E 009°27'510.2
2017-Nov-15 09:00N 44°04' E 009°34'510.4
2017-Nov-15 08:30N 44°02' E 009°40'510.4
2017-Nov-15 08:00N 44°00' E 009°47'4 8.5
2017-Nov-15 07:30N 44°02' E 009°52'4 8.0
2017-Nov-15 07:00N 44°06' E 009°51'0 0.0
2017-Nov-15 06:30N 44°06' E 009°51'0 0.0
2017-Nov-15 06:00N 44°06' E 009°51'0 0.0
2017-Nov-15 05:30N 44°06' E 009°51'0 0.0
2017-Nov-15 05:00N 44°06' E 009°51'0 0.0
2017-Nov-15 04:30N 44°06' E 009°51'0 0.0
2017-Nov-15 04:00N 44°06' E 009°51'0 0.0
2017-Nov-15 03:28N 44°06' E 009°51'0 0.0
2017-Nov-15 03:00N 44°06' E 009°51'0 0.0
2017-Nov-15 02:30N 44°06' E 009°51'0 0.0
2017-Nov-15 02:00N 44°06' E 009°51'0 0.0
2017-Nov-15 01:30N 44°06' E 009°51'0 0.0
2017-Nov-15 01:00N 44°06' E 009°51'0 0.0
2017-Nov-15 00:30N 44°06' E 009°51'0 0.0
2017-Nov-15 00:00N 44°06' E 009°51'0 0.0
2017-Nov-14 23:30N 44°06' E 009°51'0 0.0
2017-Nov-14 23:00N 44°06' E 009°51'0 0.0
2017-Nov-14 22:30N 44°06' E 009°51'0 0.0
2017-Nov-14 22:00N 44°06' E 009°51'0 0.0
2017-Nov-14 21:30N 44°06' E 009°51'0 0.0
2017-Nov-14 21:00N 44°06' E 009°51'0 0.0
2017-Nov-14 20:30N 44°06' E 009°51'0 0.0
2017-Nov-14 20:00N 44°06' E 009°51'0 0.0
2017-Nov-14 19:30N 44°06' E 009°51'0 0.0
2017-Nov-14 19:00N 44°06' E 009°51'0 0.0
2017-Nov-14 18:30N 44°06' E 009°51'0 0.0
2017-Nov-14 18:00N 44°06' E 009°51'0 0.0
2017-Nov-14 17:30N 44°06' E 009°51'0 0.0
2017-Nov-14 17:00N 44°06' E 009°51'0 0.0
2017-Nov-14 16:30N 44°06' E 009°51'0 0.0
2017-Nov-14 16:00N 44°06' E 009°51'0 0.0
2017-Nov-14 15:30N 44°06' E 009°51'0 0.0
2017-Nov-14 15:00N 44°06' E 009°51'0 0.0
2017-Nov-14 14:30N 44°06' E 009°51'0 0.0
2017-Nov-14 14:00N 44°06' E 009°51'0 0.0
2017-Nov-14 13:27N 44°06' E 009°51'0 0.0
2017-Nov-14 13:00N 44°06' E 009°51'0 0.0
2017-Nov-14 12:30N 44°06' E 009°51'0 0.0
2017-Nov-14 12:00N 44°06' E 009°51'0 0.0
2017-Nov-14 11:30N 44°06' E 009°51'0 0.0
2017-Nov-14 11:00N 44°06' E 009°51'0 0.0
2017-Nov-14 10:30N 44°06' E 009°51'0 0.0
2017-Nov-14 10:00N 44°06' E 009°51'0 0.0
2017-Nov-14 09:30N 44°06' E 009°51'0 0.0
2017-Nov-14 09:00N 44°06' E 009°51'0 0.0
2017-Nov-14 08:30N 44°06' E 009°51'1 1.0
2017-Nov-14 08:00N 44°06' E 009°51'3 7.0
2017-Nov-14 07:30N 44°03' E 009°53'2 4.3
2017-Nov-14 07:00N 44°00' E 009°53'2 3.2
2017-Nov-14 06:30N 43°59' E 009°53'0 0.1
2017-Nov-14 06:00N 43°59' E 009°53'0 0.0
2017-Nov-14 05:30N 43°59' E 009°53'0 0.0
2017-Nov-14 05:00N 43°59' E 009°53'0 0.0
2017-Nov-14 04:30N 43°59' E 009°53'0 0.0
2017-Nov-14 04:00N 43°59' E 009°53'0 0.0
2017-Nov-14 03:30N 43°59' E 009°53'0 0.0
2017-Nov-14 03:00N 43°59' E 009°53'0 0.0
2017-Nov-14 02:30N 43°59' E 009°53'0 0.0
2017-Nov-14 02:00N 43°59' E 009°53'0 0.0
2017-Nov-14 01:30N 43°59' E 009°53'0 0.0
2017-Nov-14 01:00N 43°59' E 009°53'0 0.0
2017-Nov-14 00:30N 43°59' E 009°53'0 0.0
2017-Nov-14 00:00N 43°59' E 009°53'0 0.0
2017-Nov-13 23:30N 43°59' E 009°53'0 0.0
2017-Nov-13 23:00N 43°59' E 009°53'0 0.0
2017-Nov-13 22:30N 43°59' E 009°53'0 0.0
2017-Nov-13 22:00N 43°59' E 009°53'1 0.0
2017-Nov-13 02:00N 43°59' E 009°52'3 6.8
2017-Nov-13 01:30N 44°02' E 009°55'1 1.2
2017-Nov-13 01:01N 44°03' E 009°54'0 0.2
2017-Nov-13 00:30N 44°02' E 009°54'0 0.4
2017-Nov-13 00:00N 44°03' E 009°54'0 0.2
2017-Nov-12 23:30N 44°03' E 009°54'0 0.1
2017-Nov-12 23:00N 44°03' E 009°54'0 0.0
2017-Nov-12 22:24N 44°03' E 009°54'0 0.0
2017-Nov-12 21:57N 44°03' E 009°54'0 0.0
2017-Nov-12 21:30N 44°03' E 009°54'0 0.3
2017-Nov-12 21:00N 44°03' E 009°54'0 0.0
2017-Nov-12 20:30N 44°03' E 009°54'0 0.0
2017-Nov-12 20:00N 44°03' E 009°54'0 0.0
2017-Nov-12 19:30N 44°03' E 009°54'0 0.0
2017-Nov-12 19:00N 44°03' E 009°54'0 0.1
2017-Nov-12 18:30N 44°03' E 009°54'0 0.0
2017-Nov-12 18:00N 44°03' E 009°54'0 0.0
2017-Nov-12 17:30N 44°03' E 009°54'0 0.0
2017-Nov-12 17:00N 44°03' E 009°54'1 2.5
2017-Nov-12 16:31N 44°02' E 009°55'510.0
2017-Nov-12 16:00N 43°58' E 009°50'611.3
2017-Nov-12 15:30N 43°54' E 009°44'611.5
2017-Nov-12 15:00N 43°50' E 009°39'611.8
2017-Nov-12 14:30N 43°45' E 009°34'611.9
2017-Nov-12 14:00N 43°40' E 009°30'711.9
2017-Nov-12 13:27N 43°35' E 009°24'512.0
2017-Nov-12 13:00N 43°30' E 009°20'612.0
2017-Nov-12 12:30N 43°25' E 009°16'612.1
2017-Nov-12 12:00N 43°20' E 009°11'612.0
2017-Nov-12 11:30N 43°15' E 009°06'611.8
2017-Nov-12 10:58N 43°10' E 009°01'22810.3
2017-Nov-11 12:47N 39°26' E 008°02'  
Track history (hours):
 
Tides and Currents Weather Stations Pressure Air Temp Water Temp Dewpoint Dewpoint Depression Visibility Wind Speed Wind Dir Waves Ship Positions

Hh East

Last reported at 2017-Nov-16 18:07 UTC. Time now 2017-Nov-21 19:08 UTC.
Position N 43°12' E 007°01'.

Length 127 m; draft 7.4 m.

Type: Ship. MMSI: 341771000.

Date/timePositionNaut miles runAvg speedWind from/ knotsBaromVisibWave heightAir tempDewpointWater temp
2017-Nov-16 18:07N 43°12' E 007°01'110.8
2017-Nov-16 18:01N 43°12' E 007°02'510.7
2017-Nov-16 17:30N 43°16' E 007°08'510.9
2017-Nov-16 17:00N 43°19' E 007°14'611.5
2017-Nov-16 16:30N 43°22' E 007°20'611.2
2017-Nov-16 16:01N 43°26' E 007°26'611.2
2017-Nov-16 15:30N 43°29' E 007°33'711.5
2017-Nov-16 14:55N 43°33' E 007°40'511.5
2017-Nov-16 14:28N 43°36' E 007°46'511.5
2017-Nov-16 14:00N 43°39' E 007°52'1611.5
2017-Nov-16 12:38N 43°47' E 008°10'211.3
2017-Nov-16 12:29N 43°49' E 008°12'611.7
2017-Nov-16 11:59N 43°53' E 008°17'612.2
2017-Nov-16 11:30N 43°57' E 008°23'611.8
2017-Nov-16 11:00N 44°02' E 008°29'611.5
2017-Nov-16 10:30N 44°06' E 008°34'611.3
2017-Nov-16 10:00N 44°09' E 008°40'611.6
2017-Nov-16 09:30N 44°13' E 008°46'611.7
2017-Nov-16 09:01N 44°17' E 008°53'510.4
2017-Nov-16 08:30N 44°20' E 008°58'4 8.2
2017-Nov-16 08:00N 44°24' E 008°55'1 2.4
2017-Nov-16 07:28N 44°24' E 008°53'0 0.0
2017-Nov-16 06:58N 44°24' E 008°53'0 0.0
2017-Nov-16 06:28N 44°24' E 008°53'0 0.0
2017-Nov-16 05:58N 44°24' E 008°53'0 0.0
2017-Nov-16 05:28N 44°24' E 008°53'0 0.0
2017-Nov-16 04:55N 44°24' E 008°53'0 0.0
2017-Nov-16 04:25N 44°24' E 008°53'0 0.0
2017-Nov-16 03:55N 44°24' E 008°53'0 0.0
2017-Nov-16 03:22N 44°24' E 008°53'0 0.0
2017-Nov-16 02:55N 44°24' E 008°53'0 0.0
2017-Nov-16 02:25N 44°24' E 008°53'0 0.0
2017-Nov-16 01:58N 44°24' E 008°53'0 0.0
2017-Nov-16 01:28N 44°24' E 008°53'0 0.0
2017-Nov-16 00:55N 44°24' E 008°53'0 0.0
2017-Nov-16 00:25N 44°24' E 008°53'0 0.0
2017-Nov-15 23:58N 44°24' E 008°53'0 0.0
2017-Nov-15 23:28N 44°24' E 008°53'0 0.0
2017-Nov-15 22:55N 44°24' E 008°53'0 0.0
2017-Nov-15 22:28N 44°24' E 008°53'0 0.0
2017-Nov-15 21:58N 44°24' E 008°53'0 0.0
2017-Nov-15 21:28N 44°24' E 008°53'0 0.0
2017-Nov-15 20:58N 44°24' E 008°53'0 0.0
2017-Nov-15 20:28N 44°24' E 008°53'0 0.0
2017-Nov-15 19:58N 44°24' E 008°53'0 0.0
2017-Nov-15 19:28N 44°24' E 008°53'0 0.0
2017-Nov-15 18:58N 44°24' E 008°53'0 0.0
2017-Nov-15 18:28N 44°24' E 008°53'0 0.0
2017-Nov-15 17:58N 44°24' E 008°53'0 0.0
2017-Nov-15 17:28N 44°24' E 008°53'0 0.0
2017-Nov-15 16:58N 44°24' E 008°53'0 0.0
2017-Nov-15 16:28N 44°24' E 008°53'0 0.0
2017-Nov-15 15:58N 44°24' E 008°53'0 0.0
2017-Nov-15 15:28N 44°24' E 008°53'0 0.0
2017-Nov-15 14:55N 44°24' E 008°53'0 0.0
2017-Nov-15 14:28N 44°24' E 008°53'0 0.0
2017-Nov-15 13:55N 44°24' E 008°53'0 0.0
2017-Nov-15 13:28N 44°24' E 008°53'0 0.0
2017-Nov-15 13:00N 44°24' E 008°53'1 2.2
2017-Nov-15 12:30N 44°24' E 008°54'4 7.5
2017-Nov-15 12:00N 44°21' E 008°58'4 8.5
2017-Nov-15 11:30N 44°18' E 009°02'510.5
2017-Nov-15 11:00N 44°15' E 009°07'611.2
2017-Nov-15 10:30N 44°11' E 009°13'611.1
2017-Nov-15 10:00N 44°08' E 009°20'511.0
2017-Nov-15 09:30N 44°06' E 009°27'510.2
2017-Nov-15 09:00N 44°04' E 009°34'510.4
2017-Nov-15 08:30N 44°02' E 009°40'510.4
2017-Nov-15 08:00N 44°00' E 009°47'4 8.5
2017-Nov-15 07:30N 44°02' E 009°52'4 8.0
2017-Nov-15 07:00N 44°06' E 009°51'0 0.0
2017-Nov-15 06:30N 44°06' E 009°51'0 0.0
2017-Nov-15 06:00N 44°06' E 009°51'0 0.0
2017-Nov-15 05:30N 44°06' E 009°51'0 0.0
2017-Nov-15 05:00N 44°06' E 009°51'0 0.0
2017-Nov-15 04:30N 44°06' E 009°51'0 0.0
2017-Nov-15 04:00N 44°06' E 009°51'0 0.0
2017-Nov-15 03:28N 44°06' E 009°51'0 0.0
2017-Nov-15 03:00N 44°06' E 009°51'0 0.0
2017-Nov-15 02:30N 44°06' E 009°51'0 0.0
2017-Nov-15 02:00N 44°06' E 009°51'0 0.0
2017-Nov-15 01:30N 44°06' E 009°51'0 0.0
2017-Nov-15 01:00N 44°06' E 009°51'0 0.0
2017-Nov-15 00:30N 44°06' E 009°51'0 0.0
2017-Nov-15 00:00N 44°06' E 009°51'0 0.0
2017-Nov-14 23:30N 44°06' E 009°51'0 0.0
2017-Nov-14 23:00N 44°06' E 009°51'0 0.0
2017-Nov-14 22:30N 44°06' E 009°51'0 0.0
2017-Nov-14 22:00N 44°06' E 009°51'0 0.0
2017-Nov-14 21:30N 44°06' E 009°51'0 0.0
2017-Nov-14 21:00N 44°06' E 009°51'0 0.0
2017-Nov-14 20:30N 44°06' E 009°51'0 0.0
2017-Nov-14 20:00N 44°06' E 009°51'0 0.0
2017-Nov-14 19:30N 44°06' E 009°51'0 0.0
2017-Nov-14 19:00N 44°06' E 009°51'0 0.0
2017-Nov-14 18:30N 44°06' E 009°51'0 0.0
2017-Nov-14 18:00N 44°06' E 009°51'0 0.0
2017-Nov-14 17:30N 44°06' E 009°51'0 0.0
2017-Nov-14 17:00N 44°06' E 009°51'0 0.0
2017-Nov-14 16:30N 44°06' E 009°51'0 0.0
2017-Nov-14 16:00N 44°06' E 009°51'0 0.0
2017-Nov-14 15:30N 44°06' E 009°51'0 0.0
2017-Nov-14 15:00N 44°06' E 009°51'0 0.0
2017-Nov-14 14:30N 44°06' E 009°51'0 0.0
2017-Nov-14 14:00N 44°06' E 009°51'0 0.0
2017-Nov-14 13:27N 44°06' E 009°51'0 0.0
2017-Nov-14 13:00N 44°06' E 009°51'0 0.0
2017-Nov-14 12:30N 44°06' E 009°51'0 0.0
2017-Nov-14 12:00N 44°06' E 009°51'0 0.0
2017-Nov-14 11:30N 44°06' E 009°51'0 0.0
2017-Nov-14 11:00N 44°06' E 009°51'0 0.0
2017-Nov-14 10:30N 44°06' E 009°51'0 0.0
2017-Nov-14 10:00N 44°06' E 009°51'0 0.0
2017-Nov-14 09:30N 44°06' E 009°51'0 0.0
2017-Nov-14 09:00N 44°06' E 009°51'0 0.0
2017-Nov-14 08:30N 44°06' E 009°51'1 1.0
2017-Nov-14 08:00N 44°06' E 009°51'3 7.0
2017-Nov-14 07:30N 44°03' E 009°53'2 4.3
2017-Nov-14 07:00N 44°00' E 009°53'2 3.2
2017-Nov-14 06:30N 43°59' E 009°53'0 0.1
2017-Nov-14 06:00N 43°59' E 009°53'0 0.0
2017-Nov-14 05:30N 43°59' E 009°53'0 0.0
2017-Nov-14 05:00N 43°59' E 009°53'0 0.0
2017-Nov-14 04:30N 43°59' E 009°53'0 0.0
2017-Nov-14 04:00N 43°59' E 009°53'0 0.0
2017-Nov-14 03:30N 43°59' E 009°53'0 0.0
2017-Nov-14 03:00N 43°59' E 009°53'0 0.0
2017-Nov-14 02:30N 43°59' E 009°53'0 0.0
2017-Nov-14 02:00N 43°59' E 009°53'0 0.0
2017-Nov-14 01:30N 43°59' E 009°53'0 0.0
2017-Nov-14 01:00N 43°59' E 009°53'0 0.0
2017-Nov-14 00:30N 43°59' E 009°53'0 0.0
2017-Nov-14 00:00N 43°59' E 009°53'0 0.0
2017-Nov-13 23:30N 43°59' E 009°53'0 0.0
2017-Nov-13 23:00N 43°59' E 009°53'0 0.0
2017-Nov-13 22:30N 43°59' E 009°53'0 0.0
2017-Nov-13 22:00N 43°59' E 009°53'1 0.0
2017-Nov-13 02:00N 43°59' E 009°52'3 6.8
2017-Nov-13 01:30N 44°02' E 009°55'1 1.2
2017-Nov-13 01:01N 44°03' E 009°54'0 0.2
2017-Nov-13 00:30N 44°02' E 009°54'0 0.4
2017-Nov-13 00:00N 44°03' E 009°54'0 0.2
2017-Nov-12 23:30N 44°03' E 009°54'0 0.1
2017-Nov-12 23:00N 44°03' E 009°54'0 0.0
2017-Nov-12 22:24N 44°03' E 009°54'0 0.0
2017-Nov-12 21:57N 44°03' E 009°54'0 0.0
2017-Nov-12 21:30N 44°03' E 009°54'0 0.3
2017-Nov-12 21:00N 44°03' E 009°54'0 0.0
2017-Nov-12 20:30N 44°03' E 009°54'0 0.0
2017-Nov-12 20:00N 44°03' E 009°54'0 0.0
2017-Nov-12 19:30N 44°03' E 009°54'0 0.0
2017-Nov-12 19:00N 44°03' E 009°54'0 0.1
2017-Nov-12 18:30N 44°03' E 009°54'0 0.0
2017-Nov-12 18:00N 44°03' E 009°54'0 0.0
2017-Nov-12 17:30N 44°03' E 009°54'0 0.0
2017-Nov-12 17:00N 44°03' E 009°54'1 2.5
2017-Nov-12 16:31N 44°02' E 009°55'510.0
2017-Nov-12 16:00N 43°58' E 009°50'611.3
2017-Nov-12 15:30N 43°54' E 009°44'611.5
2017-Nov-12 15:00N 43°50' E 009°39'611.8
2017-Nov-12 14:30N 43°45' E 009°34'611.9
2017-Nov-12 14:00N 43°40' E 009°30'711.9
2017-Nov-12 13:27N 43°35' E 009°24'512.0
2017-Nov-12 13:00N 43°30' E 009°20'612.0
2017-Nov-12 12:30N 43°25' E 009°16'612.1
2017-Nov-12 12:00N 43°20' E 009°11'612.0
2017-Nov-12 11:30N 43°15' E 009°06'611.8
2017-Nov-12 10:58N 43°10' E 009°01'22810.3
2017-Nov-11 12:47N 39°26' E 008°02'  

Dump ship's entire track history